sensor_id;sensor_type;location;lat;lon;timestamp;P1;durP1;ratioP1;P2;durP2;ratioP2
75189;SDS011;69198;44.694;37.790;2023-08-17T00:00:25;9.30;;;4.60;;
75189;SDS011;69198;44.694;37.790;2023-08-17T00:01:27;9.95;;;4.55;;
75189;SDS011;69198;44.694;37.790;2023-08-17T00:02:27;12.23;;;4.20;;
75189;SDS011;69198;44.694;37.790;2023-08-17T00:03:28;10.67;;;4.47;;
75189;SDS011;69198;44.694;37.790;2023-08-17T00:04:29;11.43;;;4.67;;
75189;SDS011;69198;44.694;37.790;2023-08-17T00:05:29;7.93;;;4.10;;
75189;SDS011;69198;44.694;37.790;2023-08-17T00:06:33;8.15;;;4.32;;
75189;SDS011;69198;44.694;37.790;2023-08-17T00:07:33;8.83;;;4.03;;
75189;SDS011;69198;44.694;37.790;2023-08-17T00:08:34;10.45;;;4.38;;
75189;SDS011;69198;44.694;37.790;2023-08-17T00:09:35;9.02;;;4.80;;
75189;SDS011;69198;44.694;37.790;2023-08-17T00:10:36;10.10;;;4.60;;
75189;SDS011;69198;44.694;37.790;2023-08-17T00:11:39;9.20;;;4.32;;
75189;SDS011;69198;44.694;37.790;2023-08-17T00:12:39;10.55;;;4.97;;
75189;SDS011;69198;44.694;37.790;2023-08-17T00:13:40;9.73;;;4.77;;
75189;SDS011;69198;44.694;37.790;2023-08-17T00:14:41;10.20;;;4.88;;
75189;SDS011;69198;44.694;37.790;2023-08-17T00:15:42;11.57;;;5.05;;
75189;SDS011;69198;44.694;37.790;2023-08-17T00:16:45;12.13;;;4.75;;
75189;SDS011;69198;44.694;37.790;2023-08-17T00:17:45;9.93;;;5.17;;
75189;SDS011;69198;44.694;37.790;2023-08-17T00:18:47;11.15;;;4.95;;
75189;SDS011;69198;44.694;37.790;2023-08-17T00:19:48;12.55;;;4.32;;
75189;SDS011;69198;44.694;37.790;2023-08-17T00:20:50;11.50;;;4.90;;
75189;SDS011;69198;44.694;37.790;2023-08-17T00:21:51;10.93;;;4.60;;
75189;SDS011;69198;44.694;37.790;2023-08-17T00:22:52;10.27;;;4.60;;
75189;SDS011;69198;44.694;37.790;2023-08-17T00:23:53;10.77;;;4.05;;
75189;SDS011;69198;44.694;37.790;2023-08-17T00:24:54;9.83;;;4.57;;
75189;SDS011;69198;44.694;37.790;2023-08-17T00:25:54;9.50;;;4.60;;
75189;SDS011;69198;44.694;37.790;2023-08-17T00:26:55;13.27;;;4.93;;
75189;SDS011;69198;44.694;37.790;2023-08-17T00:27:57;10.13;;;4.70;;
75189;SDS011;69198;44.694;37.790;2023-08-17T00:28:58;12.05;;;4.57;;
75189;SDS011;69198;44.694;37.790;2023-08-17T00:29:58;12.35;;;4.55;;
75189;SDS011;69198;44.694;37.790;2023-08-17T00:31:00;11.50;;;5.00;;
75189;SDS011;69198;44.694;37.790;2023-08-17T00:32:01;10.88;;;4.63;;
75189;SDS011;69198;44.694;37.790;2023-08-17T00:33:02;14.00;;;5.32;;
75189;SDS011;69198;44.694;37.790;2023-08-17T00:34:03;9.93;;;4.43;;
75189;SDS011;69198;44.694;37.790;2023-08-17T00:35:05;9.10;;;4.70;;
75189;SDS011;69198;44.694;37.790;2023-08-17T00:36:06;24.30;;;4.72;;
75189;SDS011;69198;44.694;37.790;2023-08-17T00:37:07;10.48;;;4.60;;
75189;SDS011;69198;44.694;37.790;2023-08-17T00:38:08;12.63;;;5.37;;
75189;SDS011;69198;44.694;37.790;2023-08-17T00:39:08;10.30;;;4.95;;
75189;SDS011;69198;44.694;37.790;2023-08-17T00:40:09;13.05;;;5.43;;
75189;SDS011;69198;44.694;37.790;2023-08-17T00:41:10;10.93;;;5.18;;
75189;SDS011;69198;44.694;37.790;2023-08-17T00:42:11;11.93;;;4.67;;
75189;SDS011;69198;44.694;37.790;2023-08-17T00:43:12;9.48;;;4.45;;
75189;SDS011;69198;44.694;37.790;2023-08-17T00:44:12;12.03;;;4.67;;
75189;SDS011;69198;44.694;37.790;2023-08-17T00:45:13;11.07;;;5.15;;
75189;SDS011;69198;44.694;37.790;2023-08-17T00:46:15;9.07;;;4.13;;
75189;SDS011;69198;44.694;37.790;2023-08-17T00:47:19;12.77;;;4.50;;
75189;SDS011;69198;44.694;37.790;2023-08-17T00:48:19;9.57;;;4.40;;
75189;SDS011;69198;44.694;37.790;2023-08-17T00:49:22;11.18;;;4.68;;
75189;SDS011;69198;44.694;37.790;2023-08-17T00:50:23;10.88;;;4.55;;
75189;SDS011;69198;44.694;37.790;2023-08-17T00:51:24;11.23;;;4.70;;
75189;SDS011;69198;44.694;37.790;2023-08-17T00:52:25;10.60;;;4.43;;
75189;SDS011;69198;44.694;37.790;2023-08-17T00:53:27;8.23;;;4.33;;
75189;SDS011;69198;44.694;37.790;2023-08-17T00:54:28;9.90;;;4.22;;
75189;SDS011;69198;44.694;37.790;2023-08-17T00:55:30;9.52;;;4.20;;
75189;SDS011;69198;44.694;37.790;2023-08-17T00:56:31;8.55;;;4.00;;
75189;SDS011;69198;44.694;37.790;2023-08-17T00:57:32;10.27;;;4.18;;
75189;SDS011;69198;44.694;37.790;2023-08-17T00:58:33;9.90;;;4.35;;
75189;SDS011;69198;44.694;37.790;2023-08-17T00:59:34;9.50;;;4.40;;
75189;SDS011;69198;44.694;37.790;2023-08-17T01:00:34;8.48;;;3.75;;
75189;SDS011;69198;44.694;37.790;2023-08-17T01:01:37;8.65;;;4.00;;
75189;SDS011;69198;44.694;37.790;2023-08-17T01:02:39;9.10;;;4.53;;
75189;SDS011;69198;44.694;37.790;2023-08-17T01:03:40;11.38;;;4.30;;
75189;SDS011;69198;44.694;37.790;2023-08-17T01:04:42;9.18;;;4.50;;
75189;SDS011;69198;44.694;37.790;2023-08-17T01:05:42;8.73;;;4.37;;
75189;SDS011;69198;44.694;37.790;2023-08-17T01:06:44;8.75;;;3.90;;
75189;SDS011;69198;44.694;37.790;2023-08-17T01:07:44;8.32;;;4.30;;
75189;SDS011;69198;44.694;37.790;2023-08-17T01:08:45;9.07;;;4.07;;
75189;SDS011;69198;44.694;37.790;2023-08-17T01:09:46;10.85;;;4.70;;
75189;SDS011;69198;44.694;37.790;2023-08-17T01:12:00;9.50;;;3.83;;
75189;SDS011;69198;44.694;37.790;2023-08-17T01:13:05;9.15;;;3.97;;
75189;SDS011;69198;44.694;37.790;2023-08-17T01:14:13;10.30;;;4.47;;
75189;SDS011;69198;44.694;37.790;2023-08-17T01:15:19;10.05;;;4.13;;
75189;SDS011;69198;44.694;37.790;2023-08-17T01:16:23;8.98;;;4.30;;
75189;SDS011;69198;44.694;37.790;2023-08-17T01:17:26;10.57;;;4.82;;
75189;SDS011;69198;44.694;37.790;2023-08-17T01:18:31;9.10;;;4.15;;
75189;SDS011;69198;44.694;37.790;2023-08-17T01:19:32;11.88;;;4.05;;
75189;SDS011;69198;44.694;37.790;2023-08-17T01:20:33;9.10;;;4.43;;
75189;SDS011;69198;44.694;37.790;2023-08-17T01:21:40;9.63;;;4.53;;
75189;SDS011;69198;44.694;37.790;2023-08-17T01:22:42;9.70;;;3.97;;
75189;SDS011;69198;44.694;37.790;2023-08-17T01:23:45;8.45;;;3.67;;
75189;SDS011;69198;44.694;37.790;2023-08-17T01:24:46;8.25;;;4.30;;
75189;SDS011;69198;44.694;37.790;2023-08-17T01:25:49;9.45;;;4.53;;
75189;SDS011;69198;44.694;37.790;2023-08-17T01:26:50;8.00;;;4.18;;
75189;SDS011;69198;44.694;37.790;2023-08-17T01:27:50;12.33;;;4.63;;
75189;SDS011;69198;44.694;37.790;2023-08-17T01:28:51;9.60;;;4.18;;
75189;SDS011;69198;44.694;37.790;2023-08-17T01:29:52;9.40;;;4.38;;
75189;SDS011;69198;44.694;37.790;2023-08-17T01:33:13;11.30;;;4.15;;
75189;SDS011;69198;44.694;37.790;2023-08-17T01:34:18;7.97;;;3.95;;
75189;SDS011;69198;44.694;37.790;2023-08-17T01:36:42;9.75;;;3.95;;
75189;SDS011;69198;44.694;37.790;2023-08-17T01:37:44;9.15;;;4.28;;
75189;SDS011;69198;44.694;37.790;2023-08-17T01:38:45;11.02;;;4.53;;
75189;SDS011;69198;44.694;37.790;2023-08-17T01:39:47;9.93;;;4.50;;
75189;SDS011;69198;44.694;37.790;2023-08-17T01:40:50;10.90;;;4.35;;
75189;SDS011;69198;44.694;37.790;2023-08-17T01:41:54;8.52;;;3.75;;
75189;SDS011;69198;44.694;37.790;2023-08-17T01:42:57;9.10;;;4.35;;
75189;SDS011;69198;44.694;37.790;2023-08-17T01:43:58;9.15;;;3.50;;
75189;SDS011;69198;44.694;37.790;2023-08-17T01:44:59;8.67;;;4.07;;
75189;SDS011;69198;44.694;37.790;2023-08-17T01:46:00;8.20;;;3.88;;
75189;SDS011;69198;44.694;37.790;2023-08-17T01:47:01;9.90;;;4.18;;
75189;SDS011;69198;44.694;37.790;2023-08-17T01:48:02;7.75;;;3.60;;
75189;SDS011;69198;44.694;37.790;2023-08-17T01:49:04;10.45;;;3.80;;
75189;SDS011;69198;44.694;37.790;2023-08-17T01:50:05;10.03;;;3.90;;
75189;SDS011;69198;44.694;37.790;2023-08-17T01:51:06;10.88;;;4.10;;
75189;SDS011;69198;44.694;37.790;2023-08-17T01:52:07;10.05;;;4.10;;
75189;SDS011;69198;44.694;37.790;2023-08-17T01:53:08;8.03;;;3.83;;
75189;SDS011;69198;44.694;37.790;2023-08-17T01:54:10;8.65;;;4.10;;
75189;SDS011;69198;44.694;37.790;2023-08-17T01:55:10;9.35;;;4.15;;
75189;SDS011;69198;44.694;37.790;2023-08-17T01:56:11;8.45;;;3.60;;
75189;SDS011;69198;44.694;37.790;2023-08-17T01:57:12;7.67;;;3.97;;
75189;SDS011;69198;44.694;37.790;2023-08-17T01:58:12;8.35;;;3.92;;
75189;SDS011;69198;44.694;37.790;2023-08-17T01:59:13;9.73;;;4.23;;
75189;SDS011;69198;44.694;37.790;2023-08-17T02:00:14;9.00;;;4.03;;
75189;SDS011;69198;44.694;37.790;2023-08-17T02:01:15;8.85;;;3.83;;
75189;SDS011;69198;44.694;37.790;2023-08-17T02:02:16;10.82;;;3.70;;
75189;SDS011;69198;44.694;37.790;2023-08-17T02:03:17;9.30;;;3.78;;
75189;SDS011;69198;44.694;37.790;2023-08-17T02:04:18;10.13;;;3.67;;
75189;SDS011;69198;44.694;37.790;2023-08-17T02:05:18;8.48;;;3.60;;
75189;SDS011;69198;44.694;37.790;2023-08-17T02:06:20;8.30;;;3.78;;
75189;SDS011;69198;44.694;37.790;2023-08-17T02:07:21;8.65;;;3.92;;
75189;SDS011;69198;44.694;37.790;2023-08-17T02:08:23;9.15;;;3.88;;
75189;SDS011;69198;44.694;37.790;2023-08-17T02:09:24;7.90;;;3.67;;
75189;SDS011;69198;44.694;37.790;2023-08-17T02:10:24;9.80;;;3.65;;
75189;SDS011;69198;44.694;37.790;2023-08-17T02:11:25;10.07;;;4.10;;
75189;SDS011;69198;44.694;37.790;2023-08-17T02:12:27;8.93;;;3.80;;
75189;SDS011;69198;44.694;37.790;2023-08-17T02:13:28;10.00;;;4.30;;
75189;SDS011;69198;44.694;37.790;2023-08-17T02:14:34;8.63;;;3.72;;
75189;SDS011;69198;44.694;37.790;2023-08-17T02:15:38;11.25;;;4.10;;
75189;SDS011;69198;44.694;37.790;2023-08-17T02:16:38;10.90;;;3.90;;
75189;SDS011;69198;44.694;37.790;2023-08-17T02:17:39;7.57;;;3.57;;
75189;SDS011;69198;44.694;37.790;2023-08-17T02:18:40;7.82;;;4.00;;
75189;SDS011;69198;44.694;37.790;2023-08-17T02:19:41;9.05;;;4.00;;
75189;SDS011;69198;44.694;37.790;2023-08-17T02:20:41;7.77;;;3.50;;
75189;SDS011;69198;44.694;37.790;2023-08-17T02:21:43;8.32;;;3.85;;
75189;SDS011;69198;44.694;37.790;2023-08-17T02:22:43;9.00;;;3.70;;
75189;SDS011;69198;44.694;37.790;2023-08-17T02:23:44;8.53;;;3.63;;
75189;SDS011;69198;44.694;37.790;2023-08-17T02:24:45;9.32;;;3.92;;
75189;SDS011;69198;44.694;37.790;2023-08-17T02:25:47;10.02;;;3.90;;
75189;SDS011;69198;44.694;37.790;2023-08-17T02:26:47;8.25;;;3.83;;
75189;SDS011;69198;44.694;37.790;2023-08-17T02:27:48;9.13;;;3.90;;
75189;SDS011;69198;44.694;37.790;2023-08-17T02:28:49;12.30;;;3.22;;
75189;SDS011;69198;44.694;37.790;2023-08-17T02:29:49;6.97;;;3.73;;
75189;SDS011;69198;44.694;37.790;2023-08-17T02:30:54;11.00;;;3.70;;
75189;SDS011;69198;44.694;37.790;2023-08-17T02:31:55;10.20;;;4.18;;
75189;SDS011;69198;44.694;37.790;2023-08-17T02:32:55;9.30;;;2.90;;
75189;SDS011;69198;44.694;37.790;2023-08-17T02:33:56;8.98;;;3.50;;
75189;SDS011;69198;44.694;37.790;2023-08-17T02:35:05;8.70;;;3.08;;
75189;SDS011;69198;44.694;37.790;2023-08-17T02:36:06;7.03;;;2.90;;
75189;SDS011;69198;44.694;37.790;2023-08-17T02:37:06;7.90;;;3.00;;
75189;SDS011;69198;44.694;37.790;2023-08-17T02:38:07;8.07;;;3.42;;
75189;SDS011;69198;44.694;37.790;2023-08-17T02:39:08;8.43;;;3.60;;
75189;SDS011;69198;44.694;37.790;2023-08-17T02:40:09;8.17;;;3.57;;
75189;SDS011;69198;44.694;37.790;2023-08-17T02:41:10;7.97;;;3.15;;
75189;SDS011;69198;44.694;37.790;2023-08-17T02:42:10;10.80;;;3.28;;
75189;SDS011;69198;44.694;37.790;2023-08-17T02:43:11;8.17;;;3.07;;
75189;SDS011;69198;44.694;37.790;2023-08-17T02:44:12;6.88;;;2.75;;
75189;SDS011;69198;44.694;37.790;2023-08-17T02:45:12;7.15;;;2.85;;
75189;SDS011;69198;44.694;37.790;2023-08-17T02:46:13;7.60;;;3.10;;
75189;SDS011;69198;44.694;37.790;2023-08-17T02:47:14;6.57;;;2.80;;
75189;SDS011;69198;44.694;37.790;2023-08-17T02:48:15;8.50;;;3.13;;
75189;SDS011;69198;44.694;37.790;2023-08-17T02:49:15;7.37;;;2.60;;
75189;SDS011;69198;44.694;37.790;2023-08-17T02:50:16;6.32;;;2.60;;
75189;SDS011;69198;44.694;37.790;2023-08-17T02:51:17;7.03;;;2.90;;
75189;SDS011;69198;44.694;37.790;2023-08-17T02:52:17;7.35;;;2.60;;
75189;SDS011;69198;44.694;37.790;2023-08-17T02:53:18;7.40;;;2.83;;
75189;SDS011;69198;44.694;37.790;2023-08-17T02:54:19;6.60;;;2.67;;
75189;SDS011;69198;44.694;37.790;2023-08-17T02:55:19;5.72;;;2.55;;
75189;SDS011;69198;44.694;37.790;2023-08-17T02:56:20;8.27;;;3.50;;
75189;SDS011;69198;44.694;37.790;2023-08-17T02:57:22;7.18;;;2.50;;
75189;SDS011;69198;44.694;37.790;2023-08-17T02:58:22;6.13;;;2.50;;
75189;SDS011;69198;44.694;37.790;2023-08-17T02:59:23;9.88;;;2.97;;
75189;SDS011;69198;44.694;37.790;2023-08-17T03:00:24;7.70;;;2.80;;
75189;SDS011;69198;44.694;37.790;2023-08-17T03:01:24;6.70;;;2.83;;
75189;SDS011;69198;44.694;37.790;2023-08-17T03:02:25;7.50;;;2.75;;
75189;SDS011;69198;44.694;37.790;2023-08-17T03:03:26;6.27;;;2.57;;
75189;SDS011;69198;44.694;37.790;2023-08-17T03:04:27;7.55;;;2.80;;
75189;SDS011;69198;44.694;37.790;2023-08-17T03:05:30;6.72;;;2.70;;
75189;SDS011;69198;44.694;37.790;2023-08-17T03:06:31;6.15;;;3.00;;
75189;SDS011;69198;44.694;37.790;2023-08-17T03:07:31;10.27;;;3.20;;
75189;SDS011;69198;44.694;37.790;2023-08-17T03:08:32;7.10;;;3.00;;
75189;SDS011;69198;44.694;37.790;2023-08-17T03:09:33;6.60;;;2.90;;
75189;SDS011;69198;44.694;37.790;2023-08-17T03:10:34;8.35;;;3.13;;
75189;SDS011;69198;44.694;37.790;2023-08-17T03:11:34;7.05;;;3.05;;
75189;SDS011;69198;44.694;37.790;2023-08-17T03:12:35;8.03;;;3.00;;
75189;SDS011;69198;44.694;37.790;2023-08-17T03:13:37;7.93;;;2.85;;
75189;SDS011;69198;44.694;37.790;2023-08-17T03:14:38;6.75;;;2.92;;
75189;SDS011;69198;44.694;37.790;2023-08-17T03:15:39;7.67;;;2.80;;
75189;SDS011;69198;44.694;37.790;2023-08-17T03:16:40;8.25;;;2.67;;
75189;SDS011;69198;44.694;37.790;2023-08-17T03:17:41;9.43;;;3.22;;
75189;SDS011;69198;44.694;37.790;2023-08-17T03:18:41;10.27;;;3.20;;
75189;SDS011;69198;44.694;37.790;2023-08-17T03:19:43;6.70;;;2.67;;
75189;SDS011;69198;44.694;37.790;2023-08-17T03:20:44;10.32;;;2.78;;
75189;SDS011;69198;44.694;37.790;2023-08-17T03:21:46;7.45;;;2.83;;
75189;SDS011;69198;44.694;37.790;2023-08-17T03:22:47;7.40;;;3.27;;
75189;SDS011;69198;44.694;37.790;2023-08-17T03:23:48;6.95;;;3.00;;
75189;SDS011;69198;44.694;37.790;2023-08-17T03:24:48;6.25;;;2.65;;
75189;SDS011;69198;44.694;37.790;2023-08-17T03:25:53;8.32;;;2.95;;
75189;SDS011;69198;44.694;37.790;2023-08-17T03:26:54;7.28;;;3.15;;
75189;SDS011;69198;44.694;37.790;2023-08-17T03:27:58;6.03;;;2.70;;
75189;SDS011;69198;44.694;37.790;2023-08-17T03:28:59;6.95;;;2.80;;
75189;SDS011;69198;44.694;37.790;2023-08-17T03:30:00;7.75;;;2.97;;
75189;SDS011;69198;44.694;37.790;2023-08-17T03:31:01;6.50;;;2.70;;
75189;SDS011;69198;44.694;37.790;2023-08-17T03:32:03;6.97;;;2.65;;
75189;SDS011;69198;44.694;37.790;2023-08-17T03:33:04;9.48;;;3.28;;
75189;SDS011;69198;44.694;37.790;2023-08-17T03:34:06;7.73;;;3.27;;
75189;SDS011;69198;44.694;37.790;2023-08-17T03:35:07;10.70;;;3.20;;
75189;SDS011;69198;44.694;37.790;2023-08-17T03:36:08;6.80;;;2.47;;
75189;SDS011;69198;44.694;37.790;2023-08-17T03:37:09;5.75;;;2.53;;
75189;SDS011;69198;44.694;37.790;2023-08-17T03:38:09;7.93;;;2.60;;
75189;SDS011;69198;44.694;37.790;2023-08-17T03:39:10;7.68;;;3.20;;
75189;SDS011;69198;44.694;37.790;2023-08-17T03:40:11;7.07;;;2.70;;
75189;SDS011;69198;44.694;37.790;2023-08-17T03:41:11;7.57;;;3.20;;
75189;SDS011;69198;44.694;37.790;2023-08-17T03:42:12;10.80;;;3.50;;
75189;SDS011;69198;44.694;37.790;2023-08-17T03:43:13;8.05;;;2.83;;
75189;SDS011;69198;44.694;37.790;2023-08-17T03:44:14;9.77;;;3.10;;
75189;SDS011;69198;44.694;37.790;2023-08-17T03:45:15;7.18;;;2.90;;
75189;SDS011;69198;44.694;37.790;2023-08-17T03:46:16;6.90;;;2.90;;
75189;SDS011;69198;44.694;37.790;2023-08-17T03:47:17;7.43;;;3.13;;
75189;SDS011;69198;44.694;37.790;2023-08-17T03:48:18;9.23;;;2.65;;
75189;SDS011;69198;44.694;37.790;2023-08-17T03:49:20;7.38;;;2.90;;
75189;SDS011;69198;44.694;37.790;2023-08-17T03:50:20;6.13;;;2.60;;
75189;SDS011;69198;44.694;37.790;2023-08-17T03:51:21;10.13;;;3.30;;
75189;SDS011;69198;44.694;37.790;2023-08-17T03:52:22;6.47;;;2.80;;
75189;SDS011;69198;44.694;37.790;2023-08-17T03:53:23;9.68;;;3.10;;
75189;SDS011;69198;44.694;37.790;2023-08-17T03:54:23;6.70;;;3.00;;
75189;SDS011;69198;44.694;37.790;2023-08-17T03:55:24;6.57;;;2.90;;
75189;SDS011;69198;44.694;37.790;2023-08-17T03:56:25;9.25;;;2.95;;
75189;SDS011;69198;44.694;37.790;2023-08-17T03:57:26;7.15;;;2.58;;
75189;SDS011;69198;44.694;37.790;2023-08-17T03:58:26;8.33;;;2.63;;
75189;SDS011;69198;44.694;37.790;2023-08-17T03:59:32;6.03;;;2.20;;
75189;SDS011;69198;44.694;37.790;2023-08-17T04:00:33;7.15;;;2.65;;
75189;SDS011;69198;44.694;37.790;2023-08-17T04:01:34;6.32;;;2.50;;
75189;SDS011;69198;44.694;37.790;2023-08-17T04:02:35;6.43;;;3.00;;
75189;SDS011;69198;44.694;37.790;2023-08-17T04:03:36;6.03;;;2.70;;
75189;SDS011;69198;44.694;37.790;2023-08-17T04:04:37;7.32;;;2.50;;
75189;SDS011;69198;44.694;37.790;2023-08-17T04:05:38;5.95;;;2.92;;
75189;SDS011;69198;44.694;37.790;2023-08-17T04:06:39;8.17;;;2.80;;
75189;SDS011;69198;44.694;37.790;2023-08-17T04:07:41;7.07;;;3.22;;
75189;SDS011;69198;44.694;37.790;2023-08-17T04:08:42;6.72;;;2.40;;
75189;SDS011;69198;44.694;37.790;2023-08-17T04:09:43;5.90;;;2.70;;
75189;SDS011;69198;44.694;37.790;2023-08-17T04:10:45;8.73;;;2.83;;
75189;SDS011;69198;44.694;37.790;2023-08-17T04:11:46;6.72;;;2.53;;
75189;SDS011;69198;44.694;37.790;2023-08-17T04:12:47;7.03;;;2.40;;
75189;SDS011;69198;44.694;37.790;2023-08-17T04:13:48;6.57;;;2.80;;
75189;SDS011;69198;44.694;37.790;2023-08-17T04:14:49;12.32;;;2.72;;
75189;SDS011;69198;44.694;37.790;2023-08-17T04:15:50;7.07;;;2.40;;
75189;SDS011;69198;44.694;37.790;2023-08-17T04:16:51;6.50;;;2.53;;
75189;SDS011;69198;44.694;37.790;2023-08-17T04:17:53;5.75;;;2.50;;
75189;SDS011;69198;44.694;37.790;2023-08-17T04:18:54;9.23;;;3.47;;
75189;SDS011;69198;44.694;37.790;2023-08-17T04:19:54;9.97;;;3.07;;
75189;SDS011;69198;44.694;37.790;2023-08-17T04:20:56;7.22;;;2.90;;
75189;SDS011;69198;44.694;37.790;2023-08-17T04:21:56;8.43;;;2.80;;
75189;SDS011;69198;44.694;37.790;2023-08-17T04:22:57;7.15;;;2.53;;
75189;SDS011;69198;44.694;37.790;2023-08-17T04:23:58;7.90;;;2.93;;
75189;SDS011;69198;44.694;37.790;2023-08-17T04:24:58;7.13;;;2.58;;
75189;SDS011;69198;44.694;37.790;2023-08-17T04:26:02;7.00;;;2.47;;
75189;SDS011;69198;44.694;37.790;2023-08-17T04:27:03;7.20;;;2.87;;
75189;SDS011;69198;44.694;37.790;2023-08-17T04:28:04;7.35;;;2.35;;
75189;SDS011;69198;44.694;37.790;2023-08-17T04:29:07;7.90;;;2.72;;
75189;SDS011;69198;44.694;37.790;2023-08-17T04:30:09;9.45;;;2.28;;
75189;SDS011;69198;44.694;37.790;2023-08-17T04:31:21;6.70;;;2.67;;
75189;SDS011;69198;44.694;37.790;2023-08-17T04:32:30;5.88;;;2.15;;
75189;SDS011;69198;44.694;37.790;2023-08-17T04:33:31;6.35;;;2.60;;
75189;SDS011;69198;44.694;37.790;2023-08-17T04:34:32;6.97;;;2.50;;
75189;SDS011;69198;44.694;37.790;2023-08-17T04:35:33;6.55;;;2.65;;
75189;SDS011;69198;44.694;37.790;2023-08-17T04:36:34;6.43;;;2.60;;
75189;SDS011;69198;44.694;37.790;2023-08-17T04:37:36;5.55;;;2.25;;
75189;SDS011;69198;44.694;37.790;2023-08-17T04:38:37;8.50;;;2.60;;
75189;SDS011;69198;44.694;37.790;2023-08-17T04:39:38;6.33;;;2.43;;
75189;SDS011;69198;44.694;37.790;2023-08-17T04:40:39;6.63;;;2.90;;
75189;SDS011;69198;44.694;37.790;2023-08-17T04:41:41;6.85;;;2.60;;
75189;SDS011;69198;44.694;37.790;2023-08-17T04:42:44;6.20;;;2.53;;
75189;SDS011;69198;44.694;37.790;2023-08-17T04:43:45;6.07;;;2.05;;
75189;SDS011;69198;44.694;37.790;2023-08-17T04:44:47;6.47;;;2.50;;
75189;SDS011;69198;44.694;37.790;2023-08-17T04:45:48;6.27;;;2.60;;
75189;SDS011;69198;44.694;37.790;2023-08-17T04:46:49;7.00;;;2.70;;
75189;SDS011;69198;44.694;37.790;2023-08-17T04:47:50;6.28;;;2.70;;
75189;SDS011;69198;44.694;37.790;2023-08-17T04:48:52;6.03;;;2.50;;
75189;SDS011;69198;44.694;37.790;2023-08-17T04:49:55;7.75;;;2.47;;
75189;SDS011;69198;44.694;37.790;2023-08-17T04:50:56;6.38;;;2.28;;
75189;SDS011;69198;44.694;37.790;2023-08-17T04:51:57;7.23;;;2.37;;
75189;SDS011;69198;44.694;37.790;2023-08-17T04:53:05;6.30;;;2.90;;
75189;SDS011;69198;44.694;37.790;2023-08-17T04:54:08;9.68;;;2.90;;
75189;SDS011;69198;44.694;37.790;2023-08-17T04:55:12;9.98;;;2.70;;
75189;SDS011;69198;44.694;37.790;2023-08-17T04:56:20;6.15;;;2.13;;
75189;SDS011;69198;44.694;37.790;2023-08-17T04:57:41;7.40;;;2.67;;
75189;SDS011;69198;44.694;37.790;2023-08-17T04:58:44;6.15;;;2.63;;
75189;SDS011;69198;44.694;37.790;2023-08-17T04:59:47;5.80;;;2.50;;
75189;SDS011;69198;44.694;37.790;2023-08-17T05:00:49;7.57;;;2.50;;
75189;SDS011;69198;44.694;37.790;2023-08-17T05:01:50;7.13;;;2.78;;
75189;SDS011;69198;44.694;37.790;2023-08-17T05:02:51;6.45;;;2.50;;
75189;SDS011;69198;44.694;37.790;2023-08-17T05:03:52;6.83;;;2.20;;
75189;SDS011;69198;44.694;37.790;2023-08-17T05:04:53;5.68;;;1.92;;
75189;SDS011;69198;44.694;37.790;2023-08-17T05:05:54;6.47;;;2.35;;
75189;SDS011;69198;44.694;37.790;2023-08-17T05:06:55;5.95;;;2.22;;
75189;SDS011;69198;44.694;37.790;2023-08-17T05:07:56;7.00;;;2.73;;
75189;SDS011;69198;44.694;37.790;2023-08-17T05:08:57;5.80;;;2.50;;
75189;SDS011;69198;44.694;37.790;2023-08-17T05:09:58;6.97;;;2.55;;
75189;SDS011;69198;44.694;37.790;2023-08-17T05:10:59;6.50;;;2.30;;
75189;SDS011;69198;44.694;37.790;2023-08-17T05:12:00;6.97;;;2.80;;
75189;SDS011;69198;44.694;37.790;2023-08-17T05:13:01;6.27;;;2.40;;
75189;SDS011;69198;44.694;37.790;2023-08-17T05:14:03;6.45;;;2.65;;
75189;SDS011;69198;44.694;37.790;2023-08-17T05:15:04;10.57;;;2.78;;
75189;SDS011;69198;44.694;37.790;2023-08-17T05:16:04;7.97;;;2.83;;
75189;SDS011;69198;44.694;37.790;2023-08-17T05:17:06;6.82;;;3.25;;
75189;SDS011;69198;44.694;37.790;2023-08-17T05:18:07;6.43;;;2.47;;
75189;SDS011;69198;44.694;37.790;2023-08-17T05:19:08;9.30;;;3.30;;
75189;SDS011;69198;44.694;37.790;2023-08-17T05:20:09;9.43;;;2.70;;
75189;SDS011;69198;44.694;37.790;2023-08-17T05:21:10;6.70;;;2.60;;
75189;SDS011;69198;44.694;37.790;2023-08-17T05:22:11;6.40;;;2.63;;
75189;SDS011;69198;44.694;37.790;2023-08-17T05:23:12;6.40;;;2.77;;
75189;SDS011;69198;44.694;37.790;2023-08-17T05:24:13;7.30;;;3.20;;
75189;SDS011;69198;44.694;37.790;2023-08-17T05:25:15;7.50;;;3.13;;
75189;SDS011;69198;44.694;37.790;2023-08-17T05:26:16;8.52;;;3.17;;
75189;SDS011;69198;44.694;37.790;2023-08-17T05:27:17;11.35;;;3.30;;
75189;SDS011;69198;44.694;37.790;2023-08-17T05:28:19;8.10;;;3.33;;
75189;SDS011;69198;44.694;37.790;2023-08-17T05:29:19;8.13;;;2.78;;
75189;SDS011;69198;44.694;37.790;2023-08-17T05:30:20;5.90;;;2.67;;
75189;SDS011;69198;44.694;37.790;2023-08-17T05:31:21;7.80;;;3.30;;
75189;SDS011;69198;44.694;37.790;2023-08-17T05:32:23;7.28;;;2.75;;
75189;SDS011;69198;44.694;37.790;2023-08-17T05:33:25;7.20;;;2.55;;
75189;SDS011;69198;44.694;37.790;2023-08-17T05:34:26;6.20;;;2.70;;
75189;SDS011;69198;44.694;37.790;2023-08-17T05:35:27;6.35;;;2.50;;
75189;SDS011;69198;44.694;37.790;2023-08-17T05:36:28;6.20;;;3.30;;
75189;SDS011;69198;44.694;37.790;2023-08-17T05:37:29;6.93;;;3.03;;
75189;SDS011;69198;44.694;37.790;2023-08-17T05:38:30;8.80;;;2.90;;
75189;SDS011;69198;44.694;37.790;2023-08-17T05:39:30;8.40;;;2.83;;
75189;SDS011;69198;44.694;37.790;2023-08-17T05:40:31;7.07;;;2.40;;
75189;SDS011;69198;44.694;37.790;2023-08-17T05:41:32;8.67;;;2.83;;
75189;SDS011;69198;44.694;37.790;2023-08-17T05:42:34;9.38;;;3.08;;
75189;SDS011;69198;44.694;37.790;2023-08-17T05:43:34;6.70;;;2.80;;
75189;SDS011;69198;44.694;37.790;2023-08-17T05:44:35;7.82;;;2.58;;
75189;SDS011;69198;44.694;37.790;2023-08-17T05:45:36;7.07;;;3.10;;
75189;SDS011;69198;44.694;37.790;2023-08-17T05:46:37;7.47;;;2.70;;
75189;SDS011;69198;44.694;37.790;2023-08-17T05:47:38;7.97;;;2.97;;
75189;SDS011;69198;44.694;37.790;2023-08-17T05:48:38;6.70;;;2.87;;
75189;SDS011;69198;44.694;37.790;2023-08-17T05:49:39;6.63;;;2.50;;
75189;SDS011;69198;44.694;37.790;2023-08-17T05:50:41;6.82;;;3.15;;
75189;SDS011;69198;44.694;37.790;2023-08-17T05:51:42;6.75;;;2.55;;
75189;SDS011;69198;44.694;37.790;2023-08-17T05:52:42;6.40;;;2.30;;
75189;SDS011;69198;44.694;37.790;2023-08-17T05:53:43;6.40;;;2.70;;
75189;SDS011;69198;44.694;37.790;2023-08-17T05:54:44;5.68;;;2.58;;
75189;SDS011;69198;44.694;37.790;2023-08-17T05:55:45;6.57;;;2.60;;
75189;SDS011;69198;44.694;37.790;2023-08-17T05:56:45;8.07;;;2.93;;
75189;SDS011;69198;44.694;37.790;2023-08-17T05:57:47;7.63;;;2.72;;
75189;SDS011;69198;44.694;37.790;2023-08-17T05:58:48;7.10;;;2.30;;
75189;SDS011;69198;44.694;37.790;2023-08-17T05:59:49;8.17;;;2.80;;
75189;SDS011;69198;44.694;37.790;2023-08-17T06:00:49;9.02;;;3.10;;
75189;SDS011;69198;44.694;37.790;2023-08-17T06:01:50;7.57;;;3.10;;
75189;SDS011;69198;44.694;37.790;2023-08-17T06:02:51;6.40;;;3.20;;
75189;SDS011;69198;44.694;37.790;2023-08-17T06:03:51;6.35;;;2.00;;
75189;SDS011;69198;44.694;37.790;2023-08-17T06:04:52;5.87;;;2.70;;
75189;SDS011;69198;44.694;37.790;2023-08-17T06:05:53;6.68;;;2.30;;
75189;SDS011;69198;44.694;37.790;2023-08-17T06:06:54;7.57;;;2.67;;
75189;SDS011;69198;44.694;37.790;2023-08-17T06:07:58;7.13;;;2.50;;